createdAt,value
2017-07-08T00:00:06.888Z,996.77
2017-07-08T00:01:17.259Z,996.75
2017-07-08T00:02:27.288Z,996.74
2017-07-08T00:03:37.650Z,996.76
2017-07-08T00:04:48.010Z,996.76
2017-07-08T00:05:58.368Z,996.74
2017-07-08T00:07:08.714Z,996.75
2017-07-08T00:08:19.131Z,996.76
2017-07-08T00:09:29.508Z,996.76
2017-07-08T00:10:39.853Z,996.76
2017-07-08T00:11:50.248Z,996.73
2017-07-08T00:13:00.274Z,996.72
2017-07-08T00:14:10.674Z,996.74
2017-07-08T00:15:21.021Z,996.72
2017-07-08T00:16:31.373Z,996.7
2017-07-08T00:17:41.730Z,996.75
2017-07-08T00:18:52.083Z,996.7
2017-07-08T00:20:02.188Z,996.7
2017-07-08T00:21:12.548Z,996.73
2017-07-08T00:22:22.903Z,996.71
2017-07-08T00:23:33.310Z,996.69
2017-07-08T00:24:43.670Z,996.75
2017-07-08T00:25:54.072Z,996.74
2017-07-08T00:27:04.113Z,996.74
2017-07-08T00:28:14.471Z,996.71
2017-07-08T00:29:24.194Z,996.71
2017-07-08T00:30:34.228Z,996.73
2017-07-08T00:31:44.632Z,996.73
2017-07-08T00:32:54.999Z,996.73
2017-07-08T00:34:05.360Z,996.7
2017-07-08T00:35:15.404Z,996.68
2017-07-08T00:36:25.754Z,996.67
2017-07-08T00:37:35.784Z,996.64
2017-07-08T00:38:46.136Z,996.65
2017-07-08T00:39:56.484Z,996.57
2017-07-08T00:41:06.540Z,996.61
2017-07-08T00:42:16.898Z,996.64
2017-07-08T00:43:26.684Z,996.66
2017-07-08T00:44:37.024Z,996.71
2017-07-08T00:45:47.374Z,996.7
2017-07-08T00:46:57.726Z,996.73
2017-07-08T00:48:07.765Z,996.71
2017-07-08T00:49:17.848Z,996.67
2017-07-08T00:50:27.889Z,996.72
2017-07-08T00:51:37.931Z,996.68
2017-07-08T00:52:48.292Z,996.66
2017-07-08T00:53:58.663Z,996.67
2017-07-08T00:55:08.744Z,996.68
2017-07-08T00:56:19.102Z,996.67
2017-07-08T00:57:29.131Z,996.66
2017-07-08T00:58:39.480Z,996.7
2017-07-08T00:59:49.847Z,996.66
2017-07-08T01:00:59.931Z,996.7
2017-07-08T01:02:10.297Z,996.75
2017-07-08T01:03:20.663Z,996.71
2017-07-08T01:04:31.025Z,996.75
2017-07-08T01:05:41.067Z,996.72
2017-07-08T01:06:50.815Z,996.74
2017-07-08T01:08:01.180Z,996.69
2017-07-08T01:09:11.543Z,996.64
2017-07-08T01:10:21.565Z,996.59
2017-07-08T01:11:31.922Z,996.58
2017-07-08T01:12:42.278Z,996.59
2017-07-08T01:13:52.630Z,996.61
2017-07-08T01:15:03.005Z,996.62
2017-07-08T01:16:13.362Z,996.66
2017-07-08T01:17:23.706Z,996.59
2017-07-08T01:18:34.107Z,996.55
2017-07-08T01:19:44.477Z,996.55
2017-07-08T01:20:54.755Z,996.54
2017-07-08T01:22:05.108Z,996.59
2017-07-08T01:23:15.472Z,996.53
2017-07-08T01:24:25.865Z,996.51
2017-07-08T01:25:36.219Z,996.48
2017-07-08T01:26:46.580Z,996.45
2017-07-08T01:27:56.609Z,996.5
2017-07-08T01:29:06.967Z,996.48
2017-07-08T01:30:17.071Z,996.53
2017-07-08T01:31:27.440Z,996.45
2017-07-08T01:32:37.794Z,996.49
2017-07-08T01:33:48.145Z,996.49
2017-07-08T01:34:58.485Z,996.48
2017-07-08T01:36:08.829Z,996.49
2017-07-08T01:37:19.183Z,996.49
2017-07-08T01:38:29.526Z,996.5
2017-07-08T01:39:39.889Z,996.53
2017-07-08T01:40:50.247Z,996.6
2017-07-08T01:42:00.657Z,996.6
2017-07-08T01:43:11.014Z,996.69
2017-07-08T01:44:21.055Z,996.82
2017-07-08T01:45:31.100Z,996.82
2017-07-08T01:46:41.444Z,996.81
2017-07-08T01:47:51.848Z,996.84
2017-07-08T01:49:01.882Z,996.83
2017-07-08T01:50:11.915Z,996.87
2017-07-08T01:51:22.251Z,996.88
2017-07-08T01:52:32.303Z,996.93
2017-07-08T01:53:42.076Z,996.92
2017-07-08T01:54:52.432Z,996.94
2017-07-08T01:56:02.460Z,996.98
2017-07-08T01:57:12.804Z,996.99
2017-07-08T01:58:23.170Z,997.05
2017-07-08T01:59:33.523Z,997
2017-07-08T02:00:43.869Z,997.04
2017-07-08T02:01:54.229Z,997.06
2017-07-08T02:03:04.589Z,997.06
2017-07-08T02:04:14.638Z,997
2017-07-08T02:05:25.050Z,996.99
2017-07-08T02:06:35.099Z,996.95
2017-07-08T02:07:45.451Z,996.92
2017-07-08T02:08:55.472Z,996.96
2017-07-08T02:10:05.814Z,996.98
2017-07-08T02:11:16.181Z,996.99
2017-07-08T02:12:26.223Z,997.03
2017-07-08T02:13:36.574Z,997
2017-07-08T02:14:46.937Z,997.02
2017-07-08T02:15:56.991Z,997.04
2017-07-08T02:17:07.355Z,997.02
2017-07-08T02:18:17.717Z,996.98
2017-07-08T02:19:28.098Z,996.98
2017-07-08T02:20:38.461Z,996.98
2017-07-08T02:21:48.829Z,996.98
2017-07-08T02:22:58.873Z,996.94
2017-07-08T02:24:09.230Z,996.94
2017-07-08T02:25:19.574Z,996.94
2017-07-08T02:26:29.305Z,996.94
2017-07-08T02:27:39.656Z,996.93
2017-07-08T02:28:49.164Z,996.9
2017-07-08T02:29:58.874Z,996.92
2017-07-08T02:31:08.921Z,996.92
2017-07-08T02:32:19.271Z,996.96
2017-07-08T02:33:29.626Z,996.97
2017-07-08T02:34:40.032Z,996.92
2017-07-08T02:35:50.058Z,996.93
2017-07-08T02:37:00.410Z,996.88
2017-07-08T02:38:10.742Z,996.91
2017-07-08T02:39:21.099Z,996.91
2017-07-08T02:40:31.502Z,996.97
2017-07-08T02:41:41.568Z,996.94
2017-07-08T02:42:51.590Z,996.96
2017-07-08T02:44:01.631Z,996.97
2017-07-08T02:45:11.987Z,996.97
2017-07-08T02:46:22.051Z,996.93
2017-07-08T02:47:32.423Z,996.97
2017-07-08T02:48:42.765Z,996.95
2017-07-08T02:49:53.121Z,996.96
2017-07-08T02:51:03.534Z,996.91
2017-07-08T02:52:13.603Z,996.9
2017-07-08T02:53:23.637Z,996.89
2017-07-08T02:54:33.981Z,996.91
2017-07-08T02:55:44.340Z,996.95
2017-07-08T02:56:54.377Z,996.97
2017-07-08T02:58:04.783Z,997
2017-07-08T02:59:14.830Z,997.01
2017-07-08T03:00:24.555Z,996.98
2017-07-08T03:01:34.906Z,996.99
2017-07-08T03:33:25.357Z,996.81
2017-07-08T03:34:35.695Z,996.81
2017-07-08T03:35:46.051Z,996.8
2017-07-08T03:36:56.403Z,996.77
2017-07-08T03:38:06.759Z,996.77
2017-07-08T03:39:16.528Z,996.78
2017-07-08T03:40:26.887Z,996.8
2017-07-08T03:41:37.251Z,996.79
2017-07-08T03:42:47.614Z,996.77
2017-07-08T03:43:57.645Z,996.75
2017-07-08T03:45:08.043Z,996.77
2017-07-08T03:46:18.393Z,996.81
2017-07-08T03:47:28.439Z,996.79
2017-07-08T03:48:38.467Z,996.69
2017-07-08T03:49:48.809Z,996.72
2017-07-08T03:50:58.838Z,996.76
2017-07-08T03:52:09.184Z,996.7
2017-07-08T03:53:18.897Z,996.71
2017-07-08T03:54:29.264Z,996.75
2017-07-08T03:55:39.620Z,996.7
2017-07-08T03:56:50.026Z,996.67
2017-07-08T03:58:00.068Z,996.65
2017-07-08T03:59:10.107Z,996.68
2017-07-08T04:00:20.466Z,996.72
2017-07-08T04:01:30.809Z,996.73
2017-07-08T04:02:41.214Z,996.67
2017-07-08T04:03:51.572Z,996.66
2017-07-08T04:05:01.934Z,996.71
2017-07-08T04:06:12.295Z,996.74
2017-07-08T04:07:22.648Z,996.73
2017-07-08T04:08:33.007Z,996.71
2017-07-08T04:09:42.743Z,996.74
2017-07-08T04:10:52.797Z,996.69
2017-07-08T04:12:03.153Z,996.72
2017-07-08T04:13:13.516Z,996.68
2017-07-08T04:14:23.937Z,996.65
2017-07-08T04:15:33.348Z,996.7
2017-07-08T04:16:43.736Z,996.74
2017-07-08T04:17:54.099Z,996.68
2017-07-08T04:19:04.486Z,996.68
2017-07-08T04:20:14.572Z,996.65
2017-07-08T04:21:24.919Z,996.64
2017-07-08T04:22:34.964Z,996.68
2017-07-08T04:23:45.309Z,996.61
2017-07-08T04:24:55.664Z,996.83
2017-07-08T04:26:06.019Z,997.11
2017-07-08T04:27:16.363Z,997.32
2017-07-08T04:28:26.730Z,997.38
2017-07-08T04:29:37.086Z,997.53
2017-07-08T04:30:47.453Z,997.32
2017-07-08T04:31:57.543Z,997.38
2017-07-08T04:33:07.915Z,997.3
2017-07-08T04:34:18.279Z,997.13
2017-07-08T04:35:28.312Z,997.45
2017-07-08T04:36:38.349Z,997.3
2017-07-08T04:37:48.758Z,997.28
2017-07-08T04:38:59.110Z,997.51
2017-07-08T04:40:09.151Z,997.37
2017-07-08T04:41:19.185Z,997.16
2017-07-08T04:42:29.534Z,997.23
2017-07-08T04:43:40.192Z,997.37
2017-07-08T04:44:50.235Z,996.78
2017-07-08T04:46:00.265Z,996.87
2017-07-08T04:47:10.332Z,996.85
2017-07-08T04:48:20.682Z,996.93
2017-07-08T04:49:31.040Z,996.96
2017-07-08T04:50:41.397Z,997.02
2017-07-08T04:51:51.435Z,997.02
2017-07-08T04:53:01.805Z,997.17
2017-07-08T04:54:11.848Z,997.17
2017-07-08T04:55:22.293Z,997.12
2017-07-08T04:56:32.008Z,997.22
2017-07-08T04:57:42.103Z,997.21
2017-07-08T04:58:52.463Z,997.31
2017-07-08T05:00:02.826Z,997.32
2017-07-08T05:01:12.905Z,997.33
2017-07-08T05:02:22.626Z,997.34
2017-07-08T05:03:32.674Z,997.39
2017-07-08T05:04:42.728Z,997.41
2017-07-08T05:05:52.779Z,997.42
2017-07-08T05:07:02.883Z,997.5
2017-07-08T05:08:12.918Z,997.59
2017-07-08T05:09:22.936Z,997.57
2017-07-08T05:10:33.301Z,997.58
2017-07-08T05:11:43.663Z,997.59
2017-07-08T05:12:53.770Z,997.59
2017-07-08T05:14:04.141Z,997.64
2017-07-08T05:15:14.544Z,997.61
2017-07-08T05:16:24.577Z,997.56
2017-07-08T05:17:34.933Z,997.53
2017-07-08T05:18:45.349Z,997.53
2017-07-08T05:19:55.385Z,997.47
2017-07-08T05:21:05.746Z,997.41
2017-07-08T05:22:16.103Z,997.42
2017-07-08T05:23:26.455Z,997.4
2017-07-08T05:24:36.892Z,997.44
2017-07-08T05:25:47.251Z,997.37
2017-07-08T05:26:57.629Z,997.34
2017-07-08T05:28:07.993Z,997.41
2017-07-08T05:29:18.368Z,997.49
2017-07-08T05:30:28.780Z,997.42
2017-07-08T05:31:39.140Z,997.46
2017-07-08T05:32:49.501Z,997.54
2017-07-08T05:33:59.217Z,997.49
2017-07-08T05:35:09.565Z,997.53
2017-07-08T05:36:19.980Z,997.59
2017-07-08T05:37:30.337Z,997.55
2017-07-08T05:38:40.071Z,997.57
2017-07-08T05:39:50.449Z,997.54
2017-07-08T05:41:00.823Z,997.51
2017-07-08T05:42:11.180Z,997.47
2017-07-08T05:43:20.905Z,997.53
2017-07-08T05:44:31.288Z,997.56
2017-07-08T05:45:41.645Z,997.57
2017-07-08T05:46:52.035Z,997.54
2017-07-08T05:48:02.087Z,997.51
2017-07-08T05:49:12.449Z,997.49
2017-07-08T05:50:22.810Z,997.47
2017-07-08T05:51:33.177Z,997.49
2017-07-08T05:52:43.550Z,997.6
2017-07-08T05:53:53.025Z,997.5
2017-07-08T05:55:03.392Z,997.51
2017-07-08T05:56:13.446Z,997.52
2017-07-08T05:57:23.823Z,997.49
2017-07-08T05:58:34.187Z,997.52
2017-07-08T05:59:44.580Z,997.65
2017-07-08T06:00:54.956Z,997.51
2017-07-08T06:02:04.989Z,997.45
2017-07-08T06:03:15.350Z,997.49
2017-07-08T06:04:25.393Z,997.49
2017-07-08T06:05:35.762Z,997.51
2017-07-08T06:06:46.137Z,997.58
2017-07-08T06:07:56.502Z,998.1
2017-07-08T06:09:06.525Z,998.47
2017-07-08T06:10:16.872Z,998.3
2017-07-08T06:11:27.282Z,998.22
2017-07-08T06:12:37.658Z,998.11
2017-07-08T06:13:48.007Z,997.85
2017-07-08T06:14:58.349Z,997.79
2017-07-08T06:16:08.715Z,997.72
2017-07-08T06:17:18.811Z,997.8
2017-07-08T06:18:29.170Z,998.01
2017-07-08T06:19:39.225Z,997.96
2017-07-08T06:20:49.263Z,997.86
2017-07-08T06:21:59.618Z,997.94
2017-07-08T06:23:09.977Z,997.87
2017-07-08T06:24:20.322Z,997.82
2017-07-08T06:25:30.673Z,997.78
2017-07-08T06:26:41.029Z,997.8
2017-07-08T06:27:51.390Z,997.83
2017-07-08T06:29:01.803Z,997.7
2017-07-08T06:30:12.152Z,997.76
2017-07-08T06:31:22.503Z,997.8
2017-07-08T06:32:32.548Z,997.78
2017-07-08T06:33:42.606Z,997.75
2017-07-08T06:34:53.008Z,997.73
2017-07-08T06:36:03.060Z,997.73
2017-07-08T06:37:13.453Z,997.77
2017-07-08T06:38:23.808Z,997.67
2017-07-08T06:39:34.165Z,997.7
2017-07-08T06:40:43.883Z,997.73
2017-07-08T06:41:54.243Z,997.65
2017-07-08T06:43:04.280Z,997.64
2017-07-08T06:44:14.642Z,997.64
2017-07-08T06:45:24.996Z,997.61
2017-07-08T06:46:35.356Z,997.62
2017-07-08T06:47:45.408Z,997.61
2017-07-08T06:48:55.809Z,997.6
2017-07-08T06:50:06.167Z,997.55
2017-07-08T06:51:16.524Z,997.49
2017-07-08T06:52:26.878Z,997.47
2017-07-08T06:53:37.228Z,997.54
2017-07-08T06:54:47.273Z,997.44
2017-07-08T06:55:57.646Z,997.48
2017-07-08T06:57:07.368Z,997.48
2017-07-08T06:58:17.749Z,997.48
2017-07-08T06:59:28.114Z,997.5
2017-07-08T07:00:38.466Z,997.49
2017-07-08T07:01:48.838Z,997.5
2017-07-08T07:02:59.203Z,997.48
2017-07-08T07:04:09.614Z,997.52
2017-07-08T07:05:19.655Z,997.52
2017-07-08T07:06:29.686Z,997.5
2017-07-08T07:07:39.721Z,997.5
2017-07-08T07:08:49.764Z,997.5
2017-07-08T07:10:00.170Z,997.44
2017-07-08T07:11:10.523Z,997.48
2017-07-08T07:12:20.884Z,997.48
2017-07-08T07:13:31.254Z,997.45
2017-07-08T07:14:41.608Z,997.43
2017-07-08T07:15:52.197Z,997.4
2017-07-08T07:17:02.565Z,997.43
2017-07-08T07:18:12.922Z,997.42
2017-07-08T07:19:23.287Z,997.43
2017-07-08T07:20:33.341Z,997.39
2017-07-08T07:21:43.763Z,997.41
2017-07-08T07:22:53.826Z,997.34
2017-07-08T07:24:03.538Z,997.38
2017-07-08T07:25:13.895Z,997.34
2017-07-08T07:26:24.255Z,997.37
2017-07-08T07:27:34.625Z,997.35
2017-07-08T07:28:44.675Z,997.32
2017-07-08T07:29:55.060Z,997.37
2017-07-08T07:31:04.808Z,997.37
2017-07-08T07:32:15.172Z,997.36
2017-07-08T07:33:25.277Z,997.4
2017-07-08T07:34:35.318Z,997.34
2017-07-08T07:35:45.347Z,997.36
2017-07-08T07:36:55.697Z,997.4
2017-07-08T07:38:06.049Z,997.37
2017-07-08T07:39:16.467Z,997.33
2017-07-08T07:40:26.835Z,997.37
2017-07-08T07:41:36.574Z,997.33
2017-07-08T07:42:46.620Z,997.32
2017-07-08T07:43:56.982Z,997.34
2017-07-08T07:45:07.083Z,997.36
2017-07-08T07:46:17.444Z,997.33
2017-07-08T07:47:27.805Z,997.35
2017-07-08T07:48:38.176Z,997.42
2017-07-08T07:49:48.531Z,997.35
2017-07-08T07:50:58.895Z,997.38
2017-07-08T07:52:09.260Z,997.38
2017-07-08T07:53:19.605Z,997.34
2017-07-08T07:54:29.949Z,997.38
2017-07-08T07:55:40.015Z,997.37
2017-07-08T07:56:50.427Z,997.36
2017-07-08T07:58:00.767Z,997.39
2017-07-08T07:59:10.816Z,997.35
2017-07-08T08:00:21.178Z,997.32
2017-07-08T08:01:31.219Z,997.31
2017-07-08T08:02:41.597Z,997.38
2017-07-08T08:03:51.652Z,997.4
2017-07-08T08:05:02.018Z,997.37
2017-07-08T08:06:12.398Z,997.34
2017-07-08T08:07:22.762Z,997.37
2017-07-08T08:08:32.850Z,997.35
2017-07-08T08:09:43.207Z,997.34
2017-07-08T08:10:53.566Z,997.31
2017-07-08T08:12:03.929Z,997.31
2017-07-08T08:13:14.285Z,997.31
2017-07-08T08:14:24.682Z,997.28
2017-07-08T08:15:35.040Z,997.34
2017-07-08T08:16:45.436Z,997.33
2017-07-08T08:17:55.802Z,997.3
2017-07-08T08:19:06.162Z,997.28
2017-07-08T08:20:16.261Z,997.3
2017-07-08T08:21:26.627Z,997.26
2017-07-08T08:22:36.681Z,997.32
2017-07-08T08:23:47.036Z,997.31
2017-07-08T08:24:57.403Z,997.32
2017-07-08T08:26:07.504Z,997.4
2017-07-08T08:27:17.857Z,997.34
2017-07-08T08:28:27.582Z,997.34
2017-07-08T08:29:37.927Z,997.35
2017-07-08T08:30:48.291Z,997.29
2017-07-08T08:31:58.674Z,997.26
2017-07-08T08:33:08.716Z,997.27
2017-07-08T08:34:19.084Z,997.26
2017-07-08T08:35:29.439Z,997.3
2017-07-08T08:36:39.530Z,997.26
2017-07-08T08:37:49.888Z,997.15
2017-07-08T08:38:59.929Z,997.2
2017-07-08T08:40:10.282Z,997.18
2017-07-08T08:41:20.323Z,997.22
2017-07-08T08:42:30.686Z,997.15
2017-07-08T08:43:41.031Z,997.15
2017-07-08T08:44:51.399Z,997.11
2017-07-08T08:46:01.758Z,997.17
2017-07-08T08:47:12.122Z,997.06
2017-07-08T08:48:22.489Z,997.12
2017-07-08T08:49:32.894Z,997.19
2017-07-08T08:50:43.262Z,997.08
2017-07-08T08:51:53.683Z,997.05
2017-07-08T08:53:03.723Z,997.12
2017-07-08T08:54:14.082Z,997
2017-07-08T08:55:24.494Z,997.09
2017-07-08T08:56:34.850Z,997.05
2017-07-08T08:57:45.212Z,997.01
2017-07-08T08:58:55.264Z,997.01
2017-07-08T09:00:05.634Z,997.05
2017-07-08T09:01:16.032Z,997
2017-07-08T09:02:26.389Z,997.03
2017-07-08T09:03:36.764Z,997.03
2017-07-08T09:04:46.819Z,996.97
2017-07-08T09:05:57.220Z,996.99
2017-07-08T09:07:07.576Z,996.98
2017-07-08T09:08:17.943Z,997.07
2017-07-08T09:09:28.313Z,997.03
2017-07-08T09:10:38.682Z,996.99
2017-07-08T09:11:49.044Z,997.01
2017-07-08T09:12:59.460Z,997.02
2017-07-08T09:14:09.848Z,997.04
2017-07-08T09:15:19.905Z,997
2017-07-08T09:16:29.959Z,997.04
2017-07-08T09:17:40.309Z,997.06
2017-07-08T09:18:50.049Z,996.98
2017-07-08T09:20:00.102Z,996.92
2017-07-08T09:21:10.464Z,996.88
2017-07-08T09:22:20.845Z,996.93
2017-07-08T09:23:31.195Z,996.97
2017-07-08T09:24:41.601Z,996.97
2017-07-08T09:25:51.970Z,996.87
2017-07-08T09:27:02.328Z,996.91
2017-07-08T09:28:12.708Z,996.85
2017-07-08T09:29:22.816Z,996.91
2017-07-08T09:30:32.548Z,996.88
2017-07-08T09:31:42.573Z,996.84
2017-07-08T09:32:52.630Z,996.82
2017-07-08T09:34:02.346Z,996.77
2017-07-08T09:35:12.734Z,996.82
2017-07-08T09:36:22.471Z,996.79
2017-07-08T09:37:32.193Z,996.76
2017-07-08T09:38:42.243Z,996.79
2017-07-08T09:39:52.613Z,996.8
2017-07-08T09:41:02.997Z,996.76
2017-07-08T09:42:13.427Z,996.85
2017-07-08T09:43:23.844Z,996.77
2017-07-08T09:44:34.194Z,996.76
2017-07-08T09:45:44.563Z,996.67
2017-07-08T09:46:54.918Z,996.66
2017-07-08T09:48:04.953Z,996.69
2017-07-08T09:49:15.312Z,996.74
2017-07-08T09:50:25.399Z,996.64
2017-07-08T09:51:35.461Z,996.65
2017-07-08T09:52:45.878Z,996.7
2017-07-08T09:53:56.249Z,996.66
2017-07-08T09:55:05.658Z,996.69
2017-07-08T09:56:16.032Z,996.68
2017-07-08T09:57:26.413Z,996.67
2017-07-08T09:58:36.778Z,996.6
2017-07-08T09:59:47.144Z,996.68
2017-07-08T10:00:56.913Z,996.65
2017-07-08T10:02:06.962Z,996.49
2017-07-08T10:03:17.332Z,996.51
2017-07-08T10:04:27.684Z,996.56
2017-07-08T10:05:38.069Z,996.52
2017-07-08T10:06:48.491Z,996.58
2017-07-08T10:07:58.546Z,996.43
2017-07-08T10:09:08.902Z,996.44
2017-07-08T10:10:19.289Z,996.51
2017-07-08T10:11:29.347Z,996.49
2017-07-08T10:12:39.757Z,996.4
2017-07-08T10:13:50.112Z,996.39
2017-07-08T10:15:00.482Z,996.39
2017-07-08T10:16:10.831Z,996.37
2017-07-08T10:17:20.891Z,996.44
2017-07-08T10:18:31.300Z,996.53
2017-07-08T10:19:41.044Z,996.46
2017-07-08T10:20:51.413Z,996.32
2017-07-08T10:22:01.791Z,996.32
2017-07-08T10:23:12.143Z,996.43
2017-07-08T10:24:22.246Z,996.39
2017-07-08T10:25:32.322Z,996.36
2017-07-08T10:26:42.372Z,996.32
2017-07-08T10:27:52.747Z,996.32
2017-07-08T10:29:03.140Z,996.3
2017-07-08T10:30:13.564Z,996.31
2017-07-08T10:31:23.947Z,996.32
2017-07-08T10:32:34.013Z,996.3
2017-07-08T10:33:44.053Z,996.27
2017-07-08T10:34:54.431Z,996.33
2017-07-08T10:36:04.527Z,996.23
2017-07-08T10:37:14.569Z,996.27
2017-07-08T10:38:24.935Z,996.19
2017-07-08T10:39:35.292Z,996.17
2017-07-08T10:40:45.684Z,996.18
2017-07-08T10:41:56.106Z,996.15
2017-07-08T10:43:06.474Z,996.1
2017-07-08T10:44:16.215Z,996.06
2017-07-08T10:45:26.592Z,996.14
2017-07-08T10:46:36.973Z,996.08
2017-07-08T10:47:47.406Z,996.02
2017-07-08T10:48:57.449Z,995.98
2017-07-08T10:50:07.819Z,995.98
2017-07-08T10:51:17.547Z,996.08
2017-07-08T10:52:27.900Z,996.14
2017-07-08T10:53:38.324Z,996.09
2017-07-08T10:54:48.681Z,996.09
2017-07-08T10:55:58.743Z,996.1
2017-07-08T10:57:09.109Z,995.98
2017-07-08T10:58:19.177Z,995.93
2017-07-08T10:59:29.544Z,995.95
2017-07-08T11:00:39.919Z,996.02
2017-07-08T11:01:50.293Z,995.93
2017-07-08T11:03:00.669Z,995.95
2017-07-08T11:04:11.063Z,995.88
2017-07-08T11:05:21.151Z,995.91
2017-07-08T11:06:31.507Z,995.92
2017-07-08T11:07:41.567Z,995.85
2017-07-08T11:08:51.931Z,995.84
2017-07-08T11:10:01.984Z,995.94
2017-07-08T11:11:12.352Z,995.91
2017-07-08T11:12:22.696Z,995.89
2017-07-08T11:13:33.058Z,995.89
2017-07-08T11:14:42.790Z,995.93
2017-07-08T11:15:53.148Z,995.93
2017-07-08T11:17:03.244Z,995.89
2017-07-08T11:18:12.977Z,995.89
2017-07-08T11:19:23.033Z,995.79
2017-07-08T11:20:33.423Z,995.7
2017-07-08T11:21:43.788Z,995.68
2017-07-08T11:22:54.205Z,995.83
2017-07-08T11:24:04.566Z,995.75
2017-07-08T11:25:14.927Z,995.76
2017-07-08T11:26:25.295Z,995.74
2017-07-08T11:27:35.382Z,995.7
2017-07-08T11:28:45.442Z,995.79
2017-07-08T11:29:55.500Z,995.76
2017-07-08T11:31:05.871Z,995.86
2017-07-08T11:32:16.253Z,995.8
2017-07-08T11:33:26.335Z,995.78
2017-07-08T11:34:36.688Z,995.79
2017-07-08T11:35:47.059Z,995.77
2017-07-08T11:36:57.421Z,995.76
2017-07-08T11:38:07.780Z,995.83
2017-07-08T11:39:18.150Z,995.8
2017-07-08T11:40:28.541Z,995.82
2017-07-08T11:41:38.609Z,995.85
2017-07-08T11:42:48.799Z,995.8
2017-07-08T11:43:59.177Z,995.83
2017-07-08T11:45:09.567Z,995.83
2017-07-08T11:46:19.915Z,995.85
2017-07-08T11:47:29.973Z,995.76
2017-07-08T11:48:40.033Z,995.81
2017-07-08T11:49:50.405Z,995.84
2017-07-08T11:51:00.467Z,995.81
2017-07-08T11:52:10.849Z,995.84
2017-07-08T11:53:20.902Z,995.83
2017-07-08T11:54:30.010Z,995.92
2017-07-08T11:55:40.382Z,995.97
2017-07-08T11:56:50.433Z,995.94
2017-07-08T11:58:00.228Z,995.96
2017-07-08T11:59:10.597Z,995.97
2017-07-08T12:00:20.959Z,996.01
2017-07-08T12:01:31.331Z,996.01
2017-07-08T12:02:41.695Z,996.15
2017-07-08T12:03:52.114Z,996.17
2017-07-08T12:05:02.166Z,996.2
2017-07-08T12:06:12.520Z,996.31
2017-07-08T12:07:22.889Z,996.55
2017-07-08T12:08:33.251Z,996.48
2017-07-08T12:09:43.663Z,996.66
2017-07-08T12:10:54.016Z,996.85
2017-07-08T12:12:04.363Z,996.99
2017-07-08T12:13:14.096Z,997.26
2017-07-08T12:14:24.471Z,997.16
2017-07-08T12:15:34.880Z,997
2017-07-08T12:16:44.920Z,996.88
2017-07-08T12:17:55.287Z,996.81
2017-07-08T12:19:05.660Z,996.77
2017-07-08T12:20:16.037Z,996.81
2017-07-08T12:21:26.454Z,996.82
2017-07-08T12:22:36.806Z,996.8
2017-07-08T12:23:46.843Z,996.87
2017-07-08T12:24:57.044Z,996.78
2017-07-08T12:26:07.106Z,996.83
2017-07-08T12:27:17.468Z,996.9
2017-07-08T12:28:27.817Z,996.84
2017-07-08T12:29:37.911Z,996.83
2017-07-08T12:30:47.944Z,996.79
2017-07-08T12:31:58.306Z,996.82
2017-07-08T12:33:08.342Z,996.87
2017-07-08T12:34:18.751Z,996.89
2017-07-08T12:35:28.797Z,996.96
2017-07-08T12:36:38.834Z,997.09
2017-07-08T12:37:48.886Z,997.04
2017-07-08T12:38:58.927Z,997.02
2017-07-08T12:40:08.973Z,996.97
2017-07-08T12:41:19.329Z,996.95
2017-07-08T12:42:29.681Z,996.97
2017-07-08T12:43:39.738Z,996.95
2017-07-08T12:44:49.817Z,996.85
2017-07-08T12:46:00.177Z,996.82
2017-07-08T12:47:10.530Z,996.8
2017-07-08T12:48:20.895Z,996.74
2017-07-08T12:49:31.248Z,996.68
2017-07-08T12:50:41.599Z,996.68
2017-07-08T12:51:51.951Z,996.7
2017-07-08T12:53:01.988Z,996.63
2017-07-08T12:54:12.018Z,996.69
2017-07-08T12:55:22.057Z,996.64
2017-07-08T12:56:32.089Z,996.62
2017-07-08T12:57:42.714Z,996.68
2017-07-08T12:58:53.124Z,996.64
2017-07-08T13:00:03.153Z,996.61
2017-07-08T13:01:13.192Z,996.59
2017-07-08T13:02:23.537Z,996.58
2017-07-08T13:03:33.911Z,996.57
2017-07-08T13:04:44.260Z,996.57
2017-07-08T13:05:54.615Z,996.6
2017-07-08T13:07:04.651Z,996.65
2017-07-08T13:08:15.002Z,996.61
2017-07-08T13:09:25.039Z,996.6
2017-07-08T13:10:35.075Z,996.57
2017-07-08T13:11:45.156Z,996.57
2017-07-08T13:12:55.503Z,996.52
2017-07-08T13:14:05.538Z,996.5
2017-07-08T13:15:15.901Z,996.45
2017-07-08T13:16:25.937Z,996.45
2017-07-08T13:17:36.295Z,996.44
2017-07-08T13:18:46.330Z,996.45
2017-07-08T13:19:56.693Z,996.4
2017-07-08T13:21:06.727Z,996.39
2017-07-08T13:22:16.767Z,996.41
2017-07-08T13:23:27.164Z,996.39
2017-07-08T13:24:37.196Z,996.38
2017-07-08T13:25:47.269Z,996.41
2017-07-08T13:26:57.625Z,996.35
2017-07-08T13:28:07.980Z,996.4
2017-07-08T13:29:18.350Z,996.37
2017-07-08T13:30:28.701Z,996.37
2017-07-08T13:31:39.058Z,996.41
2017-07-08T13:32:49.407Z,996.4
2017-07-08T13:33:59.780Z,996.36
2017-07-08T13:35:09.826Z,996.3
2017-07-08T13:36:19.854Z,996.3
2017-07-08T13:37:29.891Z,996.3
2017-07-08T13:38:40.249Z,996.28
2017-07-08T13:39:50.615Z,996.25
2017-07-08T13:41:01.034Z,996.27
2017-07-08T13:42:11.392Z,996.26
2017-07-08T13:43:21.439Z,996.26
2017-07-08T13:44:31.819Z,996.19
2017-07-08T13:45:41.867Z,996.23
2017-07-08T13:46:51.655Z,996.26
2017-07-08T13:48:02.038Z,996.18
2017-07-08T13:49:12.401Z,996.18
2017-07-08T13:50:22.764Z,996.13
2017-07-08T13:51:32.844Z,996.06
2017-07-08T13:52:43.208Z,996.14
2017-07-08T13:53:53.549Z,996.15
2017-07-08T13:55:03.596Z,996.12
2017-07-08T13:56:13.945Z,996.14
2017-07-08T13:57:24.011Z,996.09
2017-07-08T13:58:34.424Z,996.07
2017-07-08T13:59:44.773Z,996.09
2017-07-08T14:00:55.140Z,996.07
2017-07-08T14:02:05.517Z,996.05
2017-07-08T14:03:15.868Z,996.11
2017-07-08T14:04:26.376Z,996.07
2017-07-08T14:05:36.742Z,996.08
2017-07-08T14:06:47.129Z,996.02
2017-07-08T14:07:57.161Z,995.97
2017-07-08T14:09:07.514Z,995.97
2017-07-08T14:10:17.944Z,995.95
2017-07-08T14:11:28.298Z,995.89
2017-07-08T14:12:38.658Z,995.85
2017-07-08T14:13:49.037Z,995.82
2017-07-08T14:14:59.393Z,995.76
2017-07-08T14:16:09.489Z,995.8
2017-07-08T14:17:19.555Z,995.75
2017-07-08T14:18:29.618Z,995.76
2017-07-08T14:19:39.666Z,995.81
2017-07-08T14:20:49.727Z,995.79
2017-07-08T14:21:59.811Z,995.81
2017-07-08T14:23:10.163Z,995.85
2017-07-08T14:24:20.516Z,995.85
2017-07-08T14:25:30.868Z,995.85
2017-07-08T14:26:41.224Z,995.84
2017-07-08T14:27:51.655Z,995.83
2017-07-08T14:29:01.717Z,995.82
2017-07-08T14:30:11.765Z,995.78
2017-07-08T14:31:21.802Z,995.73
2017-07-08T14:32:31.524Z,995.77
2017-07-08T14:33:41.566Z,995.79
2017-07-08T14:34:51.922Z,995.76
2017-07-08T14:36:02.344Z,995.71
2017-07-08T14:37:12.379Z,995.69
2017-07-08T14:38:22.792Z,995.68
2017-07-08T14:39:32.905Z,995.7
2017-07-08T14:40:43.279Z,995.72
2017-07-08T14:41:53.645Z,995.68
2017-07-08T14:43:04.014Z,995.62
2017-07-08T14:44:14.371Z,995.63
2017-07-08T14:45:24.467Z,995.58
2017-07-08T14:46:34.508Z,995.53
2017-07-08T14:47:44.861Z,995.57
2017-07-08T14:48:54.586Z,995.6
2017-07-08T14:50:04.968Z,995.56
2017-07-08T14:51:15.628Z,995.56
2017-07-08T14:52:25.667Z,995.55
2017-07-08T14:53:35.714Z,995.52
2017-07-08T14:54:46.076Z,995.54
2017-07-08T14:55:56.115Z,995.54
2017-07-08T14:57:06.505Z,995.53
2017-07-08T14:58:16.852Z,995.55
2017-07-08T14:59:27.218Z,995.51
2017-07-08T15:00:37.606Z,995.55
2017-07-08T15:01:47.645Z,995.51
2017-07-08T15:02:58.053Z,995.55
2017-07-08T15:04:08.466Z,995.5
2017-07-08T15:05:18.852Z,995.45
2017-07-08T15:06:29.220Z,995.44
2017-07-08T15:07:39.597Z,995.42
2017-07-08T15:08:50.026Z,995.49
2017-07-08T15:10:00.055Z,995.53